Terminal Aerodrome Forecast
Issued by NWS Blacksburg, VA

Home | Current Version | Previous Version | Text Only | Print | Product List | Glossary On
Versions: 1 2 3 4 5 6 7 8 9 10 11 12 13 14 15 16 17 18 19 20 21 22 23 24 25 26 27 28 29 30 31 32 33 34 35 36 37 38 39 40 41 42 43 44 45 46 47 48 49 50
000
FTUS41 KRNK 300525
TAFLYH
TAF
KLYH 300525Z 3006/0106 10009KT P6SM -SHRA OVC004
      TEMPO 3006/3009 3SM SHRA OVC012
     FM300900 07005KT 5SM BR VCSH OVC006
     FM301200 08004KT 4SM -DZ BR OVC004
     FM301500 04007KT P6SM VCSH OVC012
     FM301900 06007KT 5SM -SHRA VCTS SCT007 OVC015CB=

USA.gov is the U.S. government's official web portal to all federal, state and local government web resources and services.